Amity, Missouri
Current Conditions -  °F | °C
As of 5:53 PM on Saturday 25 Oct 2014 (Local Time) from KSTJ Reporting Station
Clear Clear  
Wind Chill: 24°   Ceiling: Unl
Heat Index: 24°   Visibility: 10mi
Dew Point:   Wind: 5mph
Humidity: 38%   Direction: 80°E
Pressure: 30.02"   Gusts: NA
Location:  39.87°N, 94.44°W
Report Text: KSTJ 252253Z AUTO 08004KT 10SM CLR 24/09 A3002 RMK AO2 SLP161 T02440094
Loading
Personal Weather Stations






























Interactive Weather Map
Tropical Storm Tracking
New forecast layout! Learn more

10-Day Weather Forecast

Advertisements
Track Severe Weather on mobile